Time;durP1;ratioP1;P1;durP2;ratioP2;P2;SDS_P1;SDS_P2;PMS_P1;PMS_P2;Temp;Humidity;BMP_temperature;BMP_pressure;BME280_temperature;BME280_humidity;BME280_pressure;Samples;Min_cycle;Max_cycle;Signal;HPM_P1;HPM_P2
2022/02/18 00:00:52;;;;;;;3.10;1.58;;;17.30;47.30;;;;;;5140937;27;20022;-48
2022/02/18 00:03:18;;;;;;;4.13;1.65;;;17.30;47.30;;;;;;5140988;27;20068;-48
2022/02/18 00:05:44;;;;;;;3.95;1.33;;;17.30;47.20;;;;;;5141937;27;20008;-50
2022/02/18 00:08:10;;;;;;;2.50;1.30;;;17.30;47.20;;;;;;5140669;27;20098;-48
2022/02/18 00:10:37;;;;;;;4.70;1.60;;;17.30;47.30;;;;;;5140953;27;20030;-47
2022/02/18 00:13:03;;;;;;;3.85;1.45;;;17.30;47.30;;;;;;5141943;27;20110;-48
2022/02/18 00:15:30;;;;;;;3.53;1.63;;;17.30;47.30;;;;;;5141705;27;20049;-48
2022/02/18 00:17:56;;;;;;;3.25;1.38;;;17.30;47.40;;;;;;5141099;27;20019;-50
2022/02/18 00:20:22;;;;;;;4.22;1.73;;;17.30;47.40;;;;;;5139278;27;20019;-46
2022/02/18 00:22:48;;;;;;;4.45;1.38;;;17.30;47.50;;;;;;5134920;27;20525;-49
2022/02/18 00:25:15;;;;;;;4.47;1.58;;;17.30;47.50;;;;;;5135296;27;20519;-51
2022/02/18 00:27:43;;;;;;;3.40;1.27;;;17.30;47.50;;;;;;5135443;27;20019;-47
2022/02/18 00:30:12;;;;;;;4.43;1.35;;;17.30;47.50;;;;;;5135327;27;20038;-46
2022/02/18 00:32:38;;;;;;;7.50;1.40;;;17.30;47.50;;;;;;5134612;27;20030;-51
2022/02/18 00:35:04;;;;;;;5.60;2.15;;;17.20;47.50;;;;;;5135346;27;20064;-46
2022/02/18 00:37:31;;;;;;;5.03;1.85;;;17.20;47.50;;;;;;5135732;27;20027;-50
2022/02/18 00:39:57;;;;;;;5.80;1.85;;;17.30;47.50;;;;;;5134496;27;20107;-47
2022/02/18 00:42:23;;;;;;;3.53;1.33;;;17.30;47.50;;;;;;5134525;27;20046;-49
2022/02/18 00:44:49;;;;;;;3.63;1.63;;;17.30;47.50;;;;;;5134375;27;20019;-47
2022/02/18 00:47:16;;;;;;;4.28;1.60;;;17.30;47.50;;;;;;5134048;27;20046;-48
2022/02/18 00:49:42;;;;;;;3.25;1.45;;;17.30;47.50;;;;;;5134519;27;20019;-53
2022/02/18 00:52:08;;;;;;;4.30;1.73;;;17.30;47.50;;;;;;5134881;27;20019;-48
2022/02/18 00:54:34;;;;;;;5.03;1.65;;;17.20;47.50;;;;;;5135846;27;20020;-49
2022/02/18 00:57:00;;;;;;;5.32;1.80;;;17.30;47.50;;;;;;5136531;27;20093;-48
2022/02/18 00:59:26;;;;;;;4.28;1.35;;;17.20;47.50;;;;;;5136525;27;20378;-53
2022/02/18 01:01:52;;;;;;;4.15;1.67;;;17.30;47.60;;;;;;5136876;27;20039;-51
2022/02/18 01:04:20;;;;;;;4.93;1.75;;;17.30;47.50;;;;;;5136542;27;20116;-51
2022/02/18 01:06:48;;;;;;;4.30;1.65;;;17.30;47.60;;;;;;5134150;27;20377;-47
2022/02/18 01:09:13;;;;;;;2.83;1.35;;;17.20;47.60;;;;;;5133963;27;20099;-47
2022/02/18 01:11:39;;;;;;;6.05;1.50;;;17.20;47.70;;;;;;5133069;27;20105;-51
2022/02/18 01:14:06;;;;;;;4.57;1.55;;;17.20;47.70;;;;;;5134366;27;20106;-51
2022/02/18 01:16:32;;;;;;;3.60;1.35;;;17.20;47.70;;;;;;5134321;27;20021;-52
2022/02/18 01:18:59;;;;;;;5.25;1.80;;;17.30;47.60;;;;;;5134284;27;20035;-48
2022/02/18 01:21:25;;;;;;;4.88;1.67;;;17.20;47.60;;;;;;5134055;28;20541;-51
2022/02/18 01:23:51;;;;;;;3.45;1.65;;;17.20;47.70;;;;;;5134939;28;20072;-49
2022/02/18 01:26:17;;;;;;;3.53;1.50;;;17.20;47.70;;;;;;5133847;27;20408;-49
2022/02/18 01:28:43;;;;;;;5.85;1.65;;;17.20;47.80;;;;;;5134115;28;20030;-50
2022/02/18 01:31:10;;;;;;;3.03;1.40;;;17.20;47.80;;;;;;5134179;27;20015;-51
2022/02/18 01:33:36;;;;;;;5.32;1.55;;;17.20;47.80;;;;;;5133932;27;20426;-49
2022/02/18 01:36:02;;;;;;;4.50;1.52;;;17.20;47.80;;;;;;5134109;28;20471;-51
2022/02/18 01:38:27;;;;;;;5.07;1.77;;;17.20;47.90;;;;;;5134245;27;20072;-50
2022/02/18 01:40:53;;;;;;;3.47;1.50;;;17.20;47.90;;;;;;5133752;28;20094;-50
2022/02/18 01:43:20;;;;;;;3.17;1.63;;;17.20;47.80;;;;;;5134767;28;20022;-48
2022/02/18 01:45:46;;;;;;;4.20;1.70;;;17.20;47.90;;;;;;5133369;28;20044;-49
2022/02/18 01:48:12;;;;;;;2.15;1.15;;;17.10;47.90;;;;;;5134306;28;20038;-52
2022/02/18 01:50:37;;;;;;;3.88;1.73;;;17.20;47.90;;;;;;5133821;28;20031;-47
2022/02/18 01:53:04;;;;;;;4.13;1.55;;;17.20;47.80;;;;;;5134279;28;20047;-47
2022/02/18 01:55:31;;;;;;;3.13;1.20;;;17.20;47.90;;;;;;5133664;28;20059;-50
2022/02/18 01:57:58;;;;;;;4.35;1.70;;;17.10;47.90;;;;;;5134226;27;20732;-49
2022/02/18 02:00:25;;;;;;;3.00;1.30;;;17.20;48.00;;;;;;5137653;27;20052;-50
2022/02/18 02:02:52;;;;;;;6.57;1.70;;;17.10;47.90;;;;;;5139896;27;20046;-47
2022/02/18 02:05:18;;;;;;;3.15;1.20;;;17.10;47.90;;;;;;5140105;27;20019;-48
2022/02/18 02:07:46;;;;;;;3.42;1.60;;;17.10;48.00;;;;;;5138431;27;20019;-48
2022/02/18 02:10:13;;;;;;;3.78;1.50;;;17.10;47.90;;;;;;5140437;27;20019;-46
2022/02/18 02:12:40;;;;;;;4.60;1.40;;;17.10;48.00;;;;;;5142145;27;20019;-49
2022/02/18 02:15:07;;;;;;;6.07;1.65;;;17.10;48.00;;;;;;5138847;27;20080;-50
2022/02/18 02:17:34;;;;;;;2.65;1.40;;;17.10;48.00;;;;;;5138967;27;20015;-51
2022/02/18 02:20:03;;;;;;;3.17;1.17;;;17.10;48.00;;;;;;5137943;27;20031;-45
2022/02/18 02:22:28;;;;;;;4.03;1.70;;;17.10;48.00;;;;;;5136987;27;20035;-45
2022/02/18 02:24:55;;;;;;;4.10;1.73;;;17.10;48.10;;;;;;5135727;27;20047;-47
2022/02/18 02:27:22;;;;;;;5.85;1.58;;;17.10;48.10;;;;;;5137129;27;20055;-46
2022/02/18 02:29:49;;;;;;;5.00;1.60;;;17.10;48.20;;;;;;5135705;27;20046;-46
2022/02/18 02:32:15;;;;;;;5.50;1.30;;;17.10;48.10;;;;;;5137000;27;20076;-46
2022/02/18 02:34:41;;;;;;;3.22;1.35;;;17.10;48.00;;;;;;5136620;27;20389;-48
2022/02/18 02:37:07;;;;;;;3.28;1.50;;;17.10;48.10;;;;;;5136769;27;20016;-48
2022/02/18 02:39:33;;;;;;;2.88;1.20;;;17.10;48.20;;;;;;5136632;27;20015;-47
2022/02/18 02:42:02;;;;;;;4.78;1.52;;;17.10;48.20;;;;;;5136584;27;20022;-47
2022/02/18 02:44:28;;;;;;;3.15;1.58;;;17.10;48.10;;;;;;5136760;27;20022;-50
2022/02/18 02:46:54;;;;;;;3.58;1.60;;;17.10;48.10;;;;;;5135640;27;20383;-48
2022/02/18 02:49:20;;;;;;;3.92;1.60;;;17.10;48.20;;;;;;5136526;27;20090;-50
2022/02/18 02:51:46;;;;;;;3.72;1.42;;;17.10;48.20;;;;;;5136714;27;20110;-49
2022/02/18 02:54:12;;;;;;;3.47;1.40;;;17.10;48.20;;;;;;5136817;27;20366;-50
2022/02/18 02:56:38;;;;;;;3.08;1.35;;;17.00;48.20;;;;;;5135342;27;20103;-47
2022/02/18 02:59:04;;;;;;;4.80;1.70;;;17.00;48.20;;;;;;5136853;27;20019;-47
2022/02/18 03:01:31;;;;;;;3.17;1.40;;;17.10;48.20;;;;;;5136897;27;20027;-49
2022/02/18 03:03:57;;;;;;;3.85;1.75;;;17.10;48.30;;;;;;5136440;27;20023;-50
2022/02/18 03:06:23;;;;;;;3.92;1.65;;;17.00;48.30;;;;;;5135310;27;20384;-49
2022/02/18 03:08:49;;;;;;;4.22;1.85;;;17.00;48.30;;;;;;5118258;27;20521;-47
2022/02/18 03:11:15;;;;;;;5.13;1.70;;;17.00;48.20;;;;;;5134955;27;20058;-50
2022/02/18 03:13:47;;;;;;;2.50;1.38;;;17.00;48.20;;;;;;5136695;27;20019;-47
2022/02/18 03:16:13;;;;;;;3.40;1.45;;;17.10;48.30;;;;;;5136293;27;20043;-48
2022/02/18 03:18:39;;;;;;;7.80;1.50;;;17.00;48.30;;;;;;5134803;27;20050;-48
2022/02/18 03:21:07;;;;;;;2.88;1.40;;;17.00;48.30;;;;;;5134903;27;20444;-50
2022/02/18 03:23:34;;;;;;;2.92;1.40;;;17.00;48.30;;;;;;5136222;27;20022;-48
2022/02/18 03:26:00;;;;;;;3.50;1.45;;;17.00;48.30;;;;;;5136185;27;20004;-47
2022/02/18 03:28:26;;;;;;;3.13;1.33;;;17.00;48.30;;;;;;5134893;27;20415;-51
2022/02/18 03:30:52;;;;;;;3.80;1.42;;;17.00;48.30;;;;;;5135921;27;20018;-49
2022/02/18 03:33:18;;;;;;;3.60;1.35;;;17.00;48.30;;;;;;5137524;27;20072;-52
2022/02/18 03:35:44;;;;;;;2.95;1.30;;;17.00;48.40;;;;;;5138786;27;20489;-48
2022/02/18 03:38:12;;;;;;;3.72;1.55;;;17.00;48.30;;;;;;5136619;27;20015;-48
2022/02/18 03:40:38;;;;;;;3.75;1.48;;;17.00;48.30;;;;;;5138060;27;20007;-51
2022/02/18 03:43:05;;;;;;;6.13;1.70;;;17.00;48.30;;;;;;5137668;27;20019;-50
2022/02/18 03:45:31;;;;;;;3.72;1.52;;;17.00;48.40;;;;;;5137949;27;20023;-51
2022/02/18 03:47:58;;;;;;;3.78;1.52;;;17.00;48.40;;;;;;5137007;27;20023;-48
2022/02/18 03:50:24;;;;;;;3.33;1.23;;;17.00;48.40;;;;;;5136273;27;20047;-49
2022/02/18 03:52:51;;;;;;;3.88;1.73;;;17.00;48.40;;;;;;5137101;27;20023;-50
2022/02/18 03:55:18;;;;;;;2.45;1.23;;;17.00;48.50;;;;;;5136813;27;20023;-53
2022/02/18 03:57:45;;;;;;;3.33;1.50;;;17.00;48.40;;;;;;5138496;27;19999;-51
2022/02/18 04:00:11;;;;;;;3.20;1.23;;;17.00;48.40;;;;;;5137746;27;20504;-50
2022/02/18 04:02:37;;;;;;;3.50;1.42;;;17.00;48.40;;;;;;5138202;27;20015;-47
2022/02/18 04:05:04;;;;;;;3.15;1.30;;;17.00;48.40;;;;;;5137292;27;20022;-48
2022/02/18 04:07:30;;;;;;;4.43;1.50;;;17.00;48.40;;;;;;5136535;27;20015;-51
2022/02/18 04:09:55;;;;;;;3.42;1.50;;;17.00;48.40;;;;;;5136098;27;20075;-53
2022/02/18 04:12:21;;;;;;;2.88;1.35;;;17.00;48.40;;;;;;5134888;27;20581;-51
2022/02/18 04:14:48;;;;;;;3.55;1.33;;;17.00;48.60;;;;;;5136270;27;20030;-51
2022/02/18 04:17:13;;;;;;;3.42;1.55;;;17.00;48.40;;;;;;5135688;27;20019;-51
2022/02/18 04:19:39;;;;;;;2.63;1.23;;;16.90;48.50;;;;;;5134907;27;20493;-51
2022/02/18 04:22:05;;;;;;;2.70;1.35;;;17.00;48.50;;;;;;5135619;27;20011;-49
2022/02/18 04:24:31;;;;;;;3.63;1.35;;;16.90;48.50;;;;;;5136847;27;20046;-51
2022/02/18 04:26:57;;;;;;;3.55;1.42;;;16.90;48.50;;;;;;5135222;27;20023;-49
2022/02/18 04:29:23;;;;;;;4.97;1.50;;;17.00;49.10;;;;;;5136512;27;20019;-51
2022/02/18 04:31:50;;;;;;;2.08;1.15;;;17.00;48.50;;;;;;5135923;27;20012;-50
2022/02/18 04:34:16;;;;;;;2.60;1.15;;;17.00;48.50;;;;;;5136169;27;20027;-47
2022/02/18 04:36:42;;;;;;;3.55;1.40;;;17.00;48.50;;;;;;5135355;27;20011;-50
2022/02/18 04:39:08;;;;;;;4.32;1.15;;;16.90;48.50;;;;;;5135023;27;20136;-51
2022/02/18 04:41:37;;;;;;;3.42;1.08;;;16.90;49.10;;;;;;5135369;27;20018;-49
2022/02/18 04:44:06;;;;;;;3.33;1.42;;;16.90;48.50;;;;;;5135304;27;20051;-47
2022/02/18 04:46:32;;;;;;;3.33;1.40;;;17.00;48.40;;;;;;5133972;27;20026;-48
2022/02/18 04:48:58;;;;;;;2.53;1.10;;;17.10;48.30;;;;;;5136273;27;20027;-47
2022/02/18 04:51:24;;;;;;;3.40;1.23;;;17.10;48.00;;;;;;5117936;27;20083;-49
2022/02/18 04:53:49;;;;;;;3.25;1.13;;;17.20;48.10;;;;;;5136067;27;20469;-49
2022/02/18 04:56:15;;;;;;;3.80;1.55;;;17.10;48.10;;;;;;5136032;27;20022;-49
2022/02/18 04:58:41;;;;;;;5.85;1.40;;;17.20;47.90;;;;;;5136418;27;20461;-47
2022/02/18 05:01:09;;;;;;;2.70;1.30;;;17.30;47.80;;;;;;5136068;27;20076;-50
2022/02/18 05:03:35;;;;;;;2.92;1.40;;;17.30;48.20;;;;;;5135342;27;20011;-50
2022/02/18 05:06:02;;;;;;;2.88;1.17;;;17.40;47.60;;;;;;5134225;27;20031;-47
2022/02/18 05:08:28;;;;;;;2.38;1.10;;;17.50;47.50;;;;;;5134981;27;20019;-50
2022/02/18 05:10:54;;;;;;;1.88;1.05;;;17.60;47.30;;;;;;5135260;27;20016;-48
2022/02/18 05:13:19;;;;;;;2.58;1.35;;;17.60;47.10;;;;;;5134551;27;20015;-49
2022/02/18 05:15:45;;;;;;;2.33;1.23;;;17.80;46.90;;;;;;5136061;27;20036;-48
2022/02/18 05:18:11;;;;;;;3.17;1.40;;;17.80;46.60;;;;;;5135278;28;20056;-45
2022/02/18 05:20:37;;;;;;;2.97;1.30;;;17.90;46.50;;;;;;5135884;28;20035;-48
2022/02/18 05:23:03;;;;;;;2.88;1.33;;;18.00;46.30;;;;;;5137547;28;20019;-49
2022/02/18 05:25:29;;;;;;;2.45;1.10;;;18.10;46.10;;;;;;5136678;28;20102;-49
2022/02/18 05:27:55;;;;;;;2.33;1.25;;;18.20;45.90;;;;;;5137482;27;20015;-48
2022/02/18 05:30:21;;;;;;;3.65;1.35;;;18.30;45.80;;;;;;5136859;28;20026;-50
2022/02/18 05:32:48;;;;;;;2.60;1.30;;;18.40;45.60;;;;;;5136046;28;20016;-47
2022/02/18 05:35:14;;;;;;;2.58;1.05;;;18.50;45.40;;;;;;5138886;27;20106;-46
2022/02/18 05:37:40;;;;;;;2.60;1.15;;;18.60;45.20;;;;;;5137152;27;20018;-50
2022/02/18 05:40:07;;;;;;;2.47;1.15;;;18.70;45.00;;;;;;5138188;27;20110;-51
2022/02/18 05:42:32;;;;;;;2.05;0.98;;;18.80;44.80;;;;;;5137953;27;20015;-47
2022/02/18 05:44:59;;;;;;;4.22;1.50;;;18.80;44.70;;;;;;5136586;27;20020;-46
2022/02/18 05:47:24;;;;;;;2.70;1.23;;;18.90;44.50;;;;;;5138049;27;20018;-48
2022/02/18 05:49:51;;;;;;;4.82;1.35;;;19.00;44.30;;;;;;5138520;27;20477;-50
2022/02/18 05:52:16;;;;;;;2.30;1.20;;;19.10;44.30;;;;;;5141394;27;20022;-46
2022/02/18 05:54:42;;;;;;;2.35;1.10;;;19.20;44.10;;;;;;5141387;27;20031;-48
2022/02/18 05:57:08;;;;;;;3.22;1.00;;;19.20;44.00;;;;;;5139224;27;20507;-47
2022/02/18 05:59:34;;;;;;;2.40;1.10;;;19.30;43.80;;;;;;5139119;27;20098;-48
2022/02/18 06:02:00;;;;;;;2.63;1.10;;;19.40;43.80;;;;;;5139403;27;20023;-49
2022/02/18 06:04:25;;;;;;;2.03;1.25;;;19.40;43.60;;;;;;5138038;27;20037;-46
2022/02/18 06:06:52;;;;;;;2.50;1.50;;;19.50;43.50;;;;;;5138062;27;20024;-50
2022/02/18 06:09:18;;;;;;;3.13;1.40;;;19.60;43.40;;;;;;5139910;27;20102;-48
2022/02/18 06:11:43;;;;;;;1.83;0.93;;;19.70;43.20;;;;;;5138891;27;20058;-49
2022/02/18 06:14:10;;;;;;;2.13;1.10;;;19.70;43.10;;;;;;5139673;27;20031;-49
2022/02/18 06:16:35;;;;;;;3.65;1.10;;;19.80;43.00;;;;;;5140022;27;20038;-46
2022/02/18 06:19:07;;;;;;;2.13;1.02;;;19.90;42.90;;;;;;5140393;27;20069;-46
2022/02/18 06:21:34;;;;;;;2.63;1.55;;;19.90;42.80;;;;;;5137850;27;20018;-50
2022/02/18 06:24:00;;;;;;;2.00;1.08;;;20.00;42.70;;;;;;5137480;27;20022;-46
2022/02/18 06:26:26;;;;;;;3.50;1.30;;;20.10;42.60;;;;;;5118873;27;20015;-48
2022/02/18 06:28:52;;;;;;;2.13;0.95;;;20.10;42.60;;;;;;5136974;27;20492;-48
2022/02/18 06:31:18;;;;;;;2.58;1.10;;;20.10;42.50;;;;;;5136999;27;20034;-48
2022/02/18 06:33:45;;;;;;;3.13;1.00;;;20.20;42.40;;;;;;5137139;27;20011;-51
2022/02/18 06:36:10;;;;;;;2.08;1.13;;;20.20;42.30;;;;;;5137738;27;20026;-52
2022/02/18 06:38:36;;;;;;;2.47;1.20;;;20.30;42.30;;;;;;5136753;27;20023;-51
2022/02/18 06:41:02;;;;;;;3.30;1.02;;;20.40;42.30;;;;;;5137711;27;20039;-49
2022/02/18 06:43:28;;;;;;;1.80;1.10;;;20.40;42.20;;;;;;5137647;27;20374;-52
2022/02/18 06:45:53;;;;;;;1.98;1.00;;;20.40;42.10;;;;;;5137131;27;20071;-50
2022/02/18 06:48:19;;;;;;;2.58;1.00;;;20.50;42.10;;;;;;5137548;27;20022;-50
2022/02/18 06:50:45;;;;;;;2.10;1.20;;;20.50;42.00;;;;;;5119532;27;20030;-47
2022/02/18 06:53:13;;;;;;;2.45;1.00;;;20.50;41.90;;;;;;5138544;27;20035;-49
2022/02/18 06:55:39;;;;;;;2.00;1.20;;;20.60;42.00;;;;;;5138004;27;20027;-52
2022/02/18 06:58:06;;;;;;;2.58;1.08;;;20.60;42.00;;;;;;5138660;27;20016;-51
2022/02/18 07:00:32;;;;;;;1.48;0.95;;;20.70;41.90;;;;;;5136305;27;20015;-49
2022/02/18 07:02:58;;;;;;;4.57;1.13;;;20.70;41.90;;;;;;5135952;27;20012;-48
2022/02/18 07:05:26;;;;;;;3.63;1.10;;;20.70;41.80;;;;;;5137246;27;20094;-50
2022/02/18 07:07:51;;;;;;;2.47;1.30;;;20.70;41.80;;;;;;5135288;27;20027;-50
2022/02/18 07:10:17;;;;;;;1.85;1.02;;;20.70;41.80;;;;;;5134685;27;20378;-49
2022/02/18 07:12:45;;;;;;;3.58;1.40;;;20.80;41.70;;;;;;5134860;27;20011;-50
2022/02/18 07:15:11;;;;;;;2.03;1.10;;;20.80;41.80;;;;;;5136133;27;20152;-52
2022/02/18 07:17:39;;;;;;;2.33;1.05;;;20.90;41.80;;;;;;5133995;27;20015;-48
2022/02/18 07:20:08;;;;;;;4.57;1.30;;;20.90;41.80;;;;;;5133753;27;20135;-51
2022/02/18 07:22:36;;;;;;;2.53;1.23;;;20.90;41.80;;;;;;5133757;27;20056;-49
2022/02/18 07:25:02;;;;;;;6.72;1.42;;;20.90;41.80;;;;;;5133908;27;20054;-52
2022/02/18 07:27:28;;;;;;;16.60;2.08;;;20.90;44.20;;;;;;5134000;27;20046;-51
2022/02/18 07:29:55;;;;;;;13.43;2.50;;;21.00;46.70;;;;;;5134153;27;20458;-50
2022/02/18 07:32:24;;;;;;;9.55;2.25;;;21.10;48.30;;;;;;5133579;27;20513;-54
2022/02/18 07:34:51;;;;;;;10.07;2.03;;;21.40;48.90;;;;;;5133404;27;20115;-50
2022/02/18 07:37:17;;;;;;;11.63;2.13;;;21.60;49.50;;;;;;5135429;27;20477;-51
2022/02/18 07:39:43;;;;;;;15.68;2.60;;;21.90;49.80;;;;;;5134144;27;20023;-51
2022/02/18 07:42:09;;;;;;;11.02;2.10;;;22.10;50.10;;;;;;5117027;27;20018;-52
2022/02/18 07:44:35;;;;;;;10.07;2.22;;;22.30;50.40;;;;;;5135579;27;20023;-51
2022/02/18 07:47:01;;;;;;;8.70;1.90;;;22.50;50.80;;;;;;5135381;27;20068;-51
2022/02/18 07:49:27;;;;;;;13.82;2.05;;;22.50;51.20;;;;;;5116590;27;20023;-51
2022/02/18 07:51:53;;;;;;;14.57;2.05;;;22.40;51.30;;;;;;5116222;27;20015;-51
2022/02/18 07:54:19;;;;;;;5.03;1.75;;;22.30;51.10;;;;;;5115738;27;20023;-53
2022/02/18 07:56:45;;;;;;;11.82;2.00;;;22.30;50.90;;;;;;5133629;27;20023;-51
2022/02/18 07:59:11;;;;;;;7.07;1.58;;;22.30;50.80;;;;;;5134643;27;20515;-53
2022/02/18 08:01:37;;;;;;;5.55;1.65;;;22.30;50.80;;;;;;5134546;27;20003;-50
2022/02/18 08:04:04;;;;;;;6.90;1.88;;;22.30;50.80;;;;;;5134462;27;20023;-51
2022/02/18 08:06:30;;;;;;;7.35;1.70;;;22.30;50.60;;;;;;5134697;27;20113;-51
2022/02/18 08:08:56;;;;;;;15.02;1.90;;;22.30;50.50;;;;;;5135143;27;20022;-52
2022/02/18 08:11:22;;;;;;;11.38;1.67;;;22.30;50.50;;;;;;5134601;27;20011;-48
2022/02/18 08:13:48;;;;;;;7.53;1.45;;;22.30;50.30;;;;;;5133040;27;20094;-54
2022/02/18 08:16:14;;;;;;;12.38;2.20;;;22.40;50.30;;;;;;5131516;27;20011;-52
2022/02/18 08:18:43;;;;;;;19.10;2.08;;;22.40;49.80;;;;;;5133132;27;20015;-52
2022/02/18 08:21:10;;;;;;;9.40;1.95;;;22.30;49.70;;;;;;5134106;27;20072;-53
2022/02/18 08:23:36;;;;;;;11.93;1.95;;;22.30;50.20;;;;;;5134066;27;20438;-53
2022/02/18 08:26:02;;;;;;;11.27;1.88;;;22.30;51.00;;;;;;5134154;27;20022;-52
2022/02/18 08:28:28;;;;;;;14.70;2.10;;;22.30;50.50;;;;;;5132151;27;20031;-52
2022/02/18 08:30:54;;;;;;;9.73;2.47;;;22.30;50.80;;;;;;5133612;27;20390;-50
2022/02/18 08:33:20;;;;;;;10.65;2.08;;;22.30;51.00;;;;;;5133768;27;20027;-51
2022/02/18 08:35:46;;;;;;;11.50;1.88;;;22.30;51.10;;;;;;5131801;27;20031;-50
2022/02/18 08:38:12;;;;;;;11.75;1.85;;;22.30;51.30;;;;;;5132983;27;20015;-54
2022/02/18 08:40:38;;;;;;;11.73;2.45;;;22.30;51.50;;;;;;5131251;27;20453;-50
2022/02/18 08:43:03;;;;;;;15.15;2.53;;;22.30;51.40;;;;;;5132655;27;20011;-53
2022/02/18 08:45:29;;;;;;;14.93;2.15;;;22.40;51.80;;;;;;5132332;27;20525;-55
2022/02/18 08:47:55;;;;;;;13.02;1.85;;;22.30;51.90;;;;;;5132534;27;20019;-52
2022/02/18 08:50:24;;;;;;;7.10;1.80;;;22.30;52.20;;;;;;5131074;27;20046;-49
2022/02/18 08:52:51;;;;;;;11.40;2.33;;;22.40;52.20;;;;;;5132237;27;20087;-49
2022/02/18 08:55:16;;;;;;;5.93;1.63;;;22.40;52.20;;;;;;5132243;27;20023;-53
2022/02/18 08:57:44;;;;;;;6.82;1.50;;;22.50;52.20;;;;;;5130558;27;20423;-52
2022/02/18 09:00:10;;;;;;;8.45;1.77;;;22.50;52.30;;;;;;5113930;27;20098;-54
2022/02/18 09:02:36;;;;;;;11.30;1.55;;;22.50;52.40;;;;;;5132877;27;20451;-53
2022/02/18 09:05:05;;;;;;;19.13;1.98;;;22.60;52.50;;;;;;5134227;27;20068;-53
2022/02/18 09:07:31;;;;;;;13.05;1.67;;;22.60;52.20;;;;;;5134947;27;20023;-53
2022/02/18 09:09:58;;;;;;;9.75;2.15;;;22.50;51.80;;;;;;5134435;27;20019;-50
2022/02/18 09:12:24;;;;;;;19.35;2.03;;;22.40;51.70;;;;;;5116644;27;20060;-55
2022/02/18 09:14:50;;;;;;;11.48;1.77;;;22.40;51.80;;;;;;5131987;27;20481;-54
2022/02/18 09:17:17;;;;;;;13.05;1.77;;;22.30;51.70;;;;;;5132446;27;20047;-53
2022/02/18 09:19:42;;;;;;;20.02;2.30;;;22.20;51.90;;;;;;5132067;27;20107;-53
2022/02/18 09:22:09;;;;;;;23.08;2.17;;;22.10;51.80;;;;;;5131742;27;20062;-53
2022/02/18 09:24:35;;;;;;;17.48;2.97;;;22.10;51.60;;;;;;5132168;28;20216;-53
2022/02/18 09:27:03;;;;;;;5.82;1.38;;;22.10;51.60;;;;;;5131790;28;20441;-53
2022/02/18 09:29:28;;;;;;;12.55;1.77;;;22.10;50.90;;;;;;5130307;28;20019;-52
2022/02/18 09:31:57;;;;;;;8.50;1.40;;;22.10;50.50;;;;;;5130236;28;20026;-52
2022/02/18 09:34:25;;;;;;;10.27;1.20;;;22.10;50.50;;;;;;5131746;27;20027;-51
2022/02/18 09:36:52;;;;;;;12.40;1.15;;;22.10;50.40;;;;;;5130792;28;20018;-54
2022/02/18 09:39:17;;;;;;;12.18;1.92;;;22.10;50.70;;;;;;5132141;27;20019;-48
2022/02/18 09:41:43;;;;;;;6.65;0.98;;;22.00;50.50;;;;;;5130532;28;20072;-52
2022/02/18 09:44:12;;;;;;;5.68;1.08;;;21.90;50.60;;;;;;5131532;27;20138;-52
2022/02/18 09:46:39;;;;;;;5.50;1.00;;;21.80;50.60;;;;;;5131440;28;20051;-49
2022/02/18 09:49:05;;;;;;;4.88;1.15;;;21.80;50.70;;;;;;5130900;27;20015;-49
2022/02/18 09:51:31;;;;;;;8.77;1.35;;;21.70;50.70;;;;;;5131413;28;20016;-51
2022/02/18 09:53:58;;;;;;;9.45;1.27;;;21.60;50.90;;;;;;5131525;27;20080;-50
2022/02/18 09:56:24;;;;;;;6.07;0.88;;;21.50;51.80;;;;;;5130541;28;20018;-51
2022/02/18 09:58:51;;;;;;;8.38;0.77;;;21.50;51.50;;;;;;5130277;28;20056;-51
2022/02/18 10:01:17;;;;;;;4.65;0.82;;;21.50;51.20;;;;;;5131558;27;20015;-49
2022/02/18 10:03:43;;;;;;;5.60;0.77;;;21.50;51.20;;;;;;5130560;28;20025;-51
2022/02/18 10:06:08;;;;;;;4.22;0.73;;;21.40;51.40;;;;;;5130590;28;20529;-50
2022/02/18 10:08:34;;;;;;;8.88;1.02;;;21.50;51.30;;;;;;5131178;27;20069;-55
2022/02/18 10:11:01;;;;;;;30.98;2.20;;;21.50;51.00;;;;;;5130790;28;20012;-54
2022/02/18 10:13:38;;;;;;;17.73;2.05;;;21.70;51.40;;;;;;5130774;27;20012;-54
2022/02/18 10:16:04;;;;;;;29.85;3.70;;;21.80;52.00;;;;;;5131750;27;20042;-53
2022/02/18 10:18:45;;;;;;;24.85;2.25;;;22.00;52.60;;;;;;5131914;27;20015;-54
2022/02/18 10:21:20;;;;;;;26.43;2.43;;;22.20;52.80;;;;;;5132112;27;20161;-54
2022/02/18 10:23:46;;;;;;;18.70;2.17;;;22.40;53.00;;;;;;5117031;27;20619;-51
2022/02/18 10:26:13;;;;;;;22.02;1.73;;;22.50;52.50;;;;;;5135191;27;20535;-51
2022/02/18 10:28:39;;;;;;;14.25;1.95;;;22.50;51.90;;;;;;5135207;27;20015;-52
2022/02/18 10:31:06;;;;;;;8.30;1.45;;;22.60;51.50;;;;;;5135305;27;20007;-53
2022/02/18 10:33:35;;;;;;;11.32;1.20;;;22.60;51.40;;;;;;5134996;27;20042;-53
2022/02/18 10:36:02;;;;;;;17.38;2.42;;;22.60;51.10;;;;;;5133260;27;20076;-53
2022/02/18 10:38:35;;;;;;;6.55;1.20;;;22.60;51.20;;;;;;5134320;27;20014;-53
2022/02/18 10:41:01;;;;;;;24.30;1.70;;;22.60;50.90;;;;;;5134006;27;20120;-55
2022/02/18 10:43:28;;;;;;;8.50;1.17;;;22.60;50.80;;;;;;5134948;27;20023;-51
2022/02/18 10:46:04;;;;;;;8.43;1.30;;;22.50;50.80;;;;;;5133824;27;20380;-52
2022/02/18 10:48:34;;;;;;;8.93;1.20;;;22.40;50.70;;;;;;5134599;27;20034;-56
2022/02/18 10:51:10;;;;;;;6.03;0.82;;;22.30;50.80;;;;;;5134079;27;20014;-53
2022/02/18 10:53:43;;;;;;;8.73;1.00;;;22.30;51.00;;;;;;5134651;27;20458;-53
2022/02/18 10:56:11;;;;;;;9.32;1.13;;;22.20;51.10;;;;;;5133127;27;20046;-51
2022/02/18 10:58:38;;;;;;;8.77;1.00;;;22.20;51.20;;;;;;5135660;27;20012;-52
2022/02/18 11:01:06;;;;;;;3.67;0.88;;;22.10;51.70;;;;;;5136514;27;20029;-50
2022/02/18 11:03:32;;;;;;;8.07;1.10;;;22.00;51.20;;;;;;5136176;27;20098;-53
2022/02/18 11:06:22;;;;;;;7.05;1.30;;;22.00;51.20;;;;;;5136674;27;20332;-51
2022/02/18 11:09:15;;;;;;;9.68;1.42;;;21.90;51.30;;;;;;5126508;27;20042;-50
2022/02/18 11:11:44;;;;;;;7.38;1.20;;;21.90;51.50;;;;;;5137010;27;20473;-53
2022/02/18 11:14:12;;;;;;;8.90;1.48;;;21.80;51.30;;;;;;5136338;27;20067;-51
2022/02/18 11:16:46;;;;;;;9.05;1.05;;;21.80;51.40;;;;;;5135690;27;20007;-53
2022/02/18 11:19:11;;;;;;;7.43;0.80;;;21.70;51.50;;;;;;5136325;27;20504;-53
2022/02/18 11:21:37;;;;;;;10.02;1.40;;;21.70;51.60;;;;;;5136390;27;20053;-52
2022/02/18 11:24:04;;;;;;;17.85;1.27;;;21.70;51.60;;;;;;5136942;27;20094;-49
2022/02/18 11:26:31;;;;;;;1.60;0.70;;;21.60;51.50;;;;;;5137589;27;20473;-51
2022/02/18 11:28:57;;;;;;;7.32;1.08;;;21.60;51.50;;;;;;5136369;27;20052;-48
2022/02/18 11:31:32;;;;;;;5.60;1.13;;;21.70;51.50;;;;;;5137291;27;20019;-49
2022/02/18 11:34:19;;;;;;;6.32;0.90;;;21.60;51.50;;;;;;5137016;27;20029;-51
2022/02/18 11:37:04;;;;;;;7.72;1.05;;;21.60;51.50;;;;;;5136326;27;20386;-48
2022/02/18 11:40:00;;;;;;;7.55;0.90;;;21.60;51.40;;;;;;5136525;27;20008;-51
2022/02/18 11:42:39;;;;;;;5.57;0.88;;;21.60;51.40;;;;;;5136339;27;20011;-52
2022/02/18 11:45:11;;;;;;;16.60;1.52;;;21.60;51.40;;;;;;5136491;27;20484;-53
2022/02/18 11:47:37;;;;;;;4.88;1.00;;;21.60;51.90;;;;;;5135120;27;20094;-50
2022/02/18 11:50:11;;;;;;;4.35;0.80;;;21.50;51.30;;;;;;5134891;27;20381;-49
2022/02/18 11:52:49;;;;;;;8.68;1.45;;;21.50;51.50;;;;;;5136182;27;20072;-53
2022/02/18 11:55:30;;;;;;;7.18;1.00;;;21.40;51.50;;;;;;5136603;27;20021;-53
2022/02/18 11:58:16;;;;;;;8.38;0.85;;;21.30;51.60;;;;;;5136123;27;20525;-51
2022/02/18 12:00:44;;;;;;;4.00;0.85;;;21.30;51.70;;;;;;5137185;27;20013;-51
2022/02/18 12:03:17;;;;;;;4.80;0.80;;;21.30;51.70;;;;;;5136393;27;20102;-53
2022/02/18 12:06:12;;;;;;;5.15;0.70;;;21.30;51.50;;;;;;5138432;27;20011;-54
2022/02/18 12:08:39;;;;;;;11.70;1.25;;;21.30;51.60;;;;;;5137493;27;20014;-53
2022/02/18 12:11:15;;;;;;;3.95;0.68;;;21.20;51.50;;;;;;5137971;27;20047;-52
2022/02/18 12:13:56;;;;;;;5.97;0.82;;;21.20;51.50;;;;;;5137489;27;20094;-52
2022/02/18 12:16:23;;;;;;;7.10;1.00;;;21.30;51.40;;;;;;5120184;27;20060;-54
2022/02/18 12:19:02;;;;;;;3.85;0.65;;;21.30;51.30;;;;;;5138301;27;20047;-54
2022/02/18 12:21:28;;;;;;;1.80;0.55;;;21.30;51.20;;;;;;5135675;27;20066;-49
2022/02/18 12:23:54;;;;;;;3.97;0.60;;;21.30;51.10;;;;;;5135520;27;20018;-51
2022/02/18 12:26:24;;;;;;;1.95;0.68;;;21.30;51.00;;;;;;5136569;27;20052;-49
2022/02/18 12:28:51;;;;;;;4.78;0.77;;;21.30;51.10;;;;;;5135804;27;20098;-49
2022/02/18 12:31:17;;;;;;;3.00;0.98;;;21.30;50.80;;;;;;5135776;27;20042;-50
2022/02/18 12:33:44;;;;;;;2.63;0.77;;;21.30;50.70;;;;;;5136062;27;20481;-53
2022/02/18 12:36:11;;;;;;;3.60;1.00;;;21.40;50.60;;;;;;5136758;27;20094;-49
2022/02/18 12:38:44;;;;;;;2.67;0.60;;;21.40;50.60;;;;;;5136678;27;20000;-50
2022/02/18 12:41:20;;;;;;;4.00;0.82;;;21.40;50.50;;;;;;5136047;27;20480;-55
2022/02/18 12:43:45;;;;;;;4.15;0.88;;;21.40;50.30;;;;;;5135194;27;20122;-55
2022/02/18 12:46:13;;;;;;;11.20;1.15;;;21.30;50.20;;;;;;5134213;27;20438;-54